sensor_id;sensor_type;location;lat;lon;timestamp;temperature;humidity
67275;DHT22;55463;52.324;5.122;2023-04-24T00:00:04;10.83;99.06
67275;DHT22;55463;52.324;5.122;2023-04-24T00:02:38;10.85;99.26
67275;DHT22;55463;52.324;5.122;2023-04-24T00:05:07;10.89;99.24
67275;DHT22;55463;52.324;5.122;2023-04-24T00:07:33;10.85;99.40
67275;DHT22;55463;52.324;5.122;2023-04-24T00:09:59;10.87;99.32
67275;DHT22;55463;52.324;5.122;2023-04-24T00:12:25;10.87;99.18
67275;DHT22;55463;52.324;5.122;2023-04-24T00:14:52;10.85;99.58
67275;DHT22;55463;52.324;5.122;2023-04-24T00:17:17;10.87;99.66
67275;DHT22;55463;52.324;5.122;2023-04-24T00:19:45;10.84;99.98
67275;DHT22;55463;52.324;5.122;2023-04-24T00:22:11;10.84;99.99
67275;DHT22;55463;52.324;5.122;2023-04-24T00:24:38;10.81;99.99
67275;DHT22;55463;52.324;5.122;2023-04-24T00:27:03;10.77;99.99
67275;DHT22;55463;52.324;5.122;2023-04-24T00:29:29;10.73;99.99
67275;DHT22;55463;52.324;5.122;2023-04-24T00:31:54;10.72;99.99
67275;DHT22;55463;52.324;5.122;2023-04-24T00:34:19;10.73;99.99
67275;DHT22;55463;52.324;5.122;2023-04-24T00:36:45;10.70;99.99
67275;DHT22;55463;52.324;5.122;2023-04-24T00:39:11;10.66;99.99
67275;DHT22;55463;52.324;5.122;2023-04-24T00:41:36;10.62;99.99
67275;DHT22;55463;52.324;5.122;2023-04-24T00:44:02;10.52;99.99
67275;DHT22;55463;52.324;5.122;2023-04-24T00:46:28;10.46;99.99
67275;DHT22;55463;52.324;5.122;2023-04-24T00:48:53;10.38;99.99
67275;DHT22;55463;52.324;5.122;2023-04-24T00:51:20;10.38;99.99
67275;DHT22;55463;52.324;5.122;2023-04-24T00:53:46;10.35;99.99
67275;DHT22;55463;52.324;5.122;2023-04-24T00:56:11;10.32;99.99
67275;DHT22;55463;52.324;5.122;2023-04-24T00:58:37;10.25;99.99
67275;DHT22;55463;52.324;5.122;2023-04-24T01:01:02;10.24;99.99
67275;DHT22;55463;52.324;5.122;2023-04-24T01:03:33;10.22;99.99
67275;DHT22;55463;52.324;5.122;2023-04-24T01:05:58;10.21;99.99
67275;DHT22;55463;52.324;5.122;2023-04-24T01:08:24;10.18;99.99
67275;DHT22;55463;52.324;5.122;2023-04-24T01:10:52;10.15;99.99
67275;DHT22;55463;52.324;5.122;2023-04-24T01:13:21;10.15;99.99
67275;DHT22;55463;52.324;5.122;2023-04-24T01:15:47;10.11;99.99
67275;DHT22;55463;52.324;5.122;2023-04-24T01:18:13;10.10;99.99
67275;DHT22;55463;52.324;5.122;2023-04-24T01:20:40;10.04;99.99
67275;DHT22;55463;52.324;5.122;2023-04-24T01:23:06;9.98;99.99
67275;DHT22;55463;52.324;5.122;2023-04-24T01:25:32;9.97;99.99
67275;DHT22;55463;52.324;5.122;2023-04-24T01:27:58;9.94;99.99
67275;DHT22;55463;52.324;5.122;2023-04-24T01:30:24;9.98;99.99
67275;DHT22;55463;52.324;5.122;2023-04-24T01:32:49;9.97;99.99
67275;DHT22;55463;52.324;5.122;2023-04-24T01:35:15;9.93;99.99
67275;DHT22;55463;52.324;5.122;2023-04-24T01:37:40;9.90;99.99
67275;DHT22;55463;52.324;5.122;2023-04-24T01:40:06;9.89;99.99
67275;DHT22;55463;52.324;5.122;2023-04-24T01:42:32;9.89;99.99
67275;DHT22;55463;52.324;5.122;2023-04-24T01:44:59;9.84;99.99
67275;DHT22;55463;52.324;5.122;2023-04-24T01:47:26;9.82;99.99
67275;DHT22;55463;52.324;5.122;2023-04-24T01:49:52;9.79;99.99
67275;DHT22;55463;52.324;5.122;2023-04-24T01:52:18;9.82;99.99
67275;DHT22;55463;52.324;5.122;2023-04-24T01:54:46;9.80;99.99
67275;DHT22;55463;52.324;5.122;2023-04-24T01:57:11;9.76;99.99
67275;DHT22;55463;52.324;5.122;2023-04-24T01:59:37;9.73;99.99
67275;DHT22;55463;52.324;5.122;2023-04-24T02:02:03;9.69;99.99
67275;DHT22;55463;52.324;5.122;2023-04-24T02:04:28;9.66;99.99
67275;DHT22;55463;52.324;5.122;2023-04-24T02:06:54;9.65;99.99
67275;DHT22;55463;52.324;5.122;2023-04-24T02:09:20;9.60;99.99
67275;DHT22;55463;52.324;5.122;2023-04-24T02:11:45;9.59;99.99
67275;DHT22;55463;52.324;5.122;2023-04-24T02:14:10;9.53;99.99
67275;DHT22;55463;52.324;5.122;2023-04-24T02:16:36;9.50;99.99
67275;DHT22;55463;52.324;5.122;2023-04-24T02:19:02;9.50;99.99
67275;DHT22;55463;52.324;5.122;2023-04-24T02:21:27;9.46;99.99
67275;DHT22;55463;52.324;5.122;2023-04-24T02:23:53;9.43;99.99
67275;DHT22;55463;52.324;5.122;2023-04-24T02:26:19;9.36;99.99
67275;DHT22;55463;52.324;5.122;2023-04-24T02:28:44;9.38;99.99
67275;DHT22;55463;52.324;5.122;2023-04-24T02:31:10;9.35;99.99
67275;DHT22;55463;52.324;5.122;2023-04-24T02:33:35;9.32;99.99
67275;DHT22;55463;52.324;5.122;2023-04-24T02:36:01;9.34;99.98
67275;DHT22;55463;52.324;5.122;2023-04-24T02:38:28;9.35;99.99
67275;DHT22;55463;52.324;5.122;2023-04-24T02:40:53;9.31;99.80
67275;DHT22;55463;52.324;5.122;2023-04-24T02:43:19;9.28;99.99
67275;DHT22;55463;52.324;5.122;2023-04-24T02:45:44;9.28;99.99
67275;DHT22;55463;52.324;5.122;2023-04-24T02:48:09;9.28;99.99
67275;DHT22;55463;52.324;5.122;2023-04-24T02:50:35;9.27;99.99
67275;DHT22;55463;52.324;5.122;2023-04-24T02:53:00;9.27;99.99
67275;DHT22;55463;52.324;5.122;2023-04-24T02:55:26;9.27;99.99
67275;DHT22;55463;52.324;5.122;2023-04-24T02:57:51;9.29;99.99
67275;DHT22;55463;52.324;5.122;2023-04-24T03:00:16;9.29;99.99
67275;DHT22;55463;52.324;5.122;2023-04-24T03:02:42;9.32;99.99
67275;DHT22;55463;52.324;5.122;2023-04-24T03:05:07;9.34;99.99
67275;DHT22;55463;52.324;5.122;2023-04-24T03:07:34;9.35;99.99
67275;DHT22;55463;52.324;5.122;2023-04-24T03:09:59;9.32;99.99
67275;DHT22;55463;52.324;5.122;2023-04-24T03:12:24;9.34;99.99
67275;DHT22;55463;52.324;5.122;2023-04-24T03:14:50;9.35;99.99
67275;DHT22;55463;52.324;5.122;2023-04-24T03:17:15;9.32;99.99
67275;DHT22;55463;52.324;5.122;2023-04-24T03:19:41;9.32;99.99
67275;DHT22;55463;52.324;5.122;2023-04-24T03:22:06;9.28;99.99
67275;DHT22;55463;52.324;5.122;2023-04-24T03:24:34;9.22;99.99
67275;DHT22;55463;52.324;5.122;2023-04-24T03:26:59;9.21;99.97
67275;DHT22;55463;52.324;5.122;2023-04-24T03:29:25;9.22;99.95
67275;DHT22;55463;52.324;5.122;2023-04-24T03:31:50;9.20;99.33
67275;DHT22;55463;52.324;5.122;2023-04-24T03:34:16;9.18;99.74
67275;DHT22;55463;52.324;5.122;2023-04-24T03:36:41;9.15;99.43
67275;DHT22;55463;52.324;5.122;2023-04-24T03:39:06;9.15;99.87
67275;DHT22;55463;52.324;5.122;2023-04-24T03:41:32;9.14;99.99
67275;DHT22;55463;52.324;5.122;2023-04-24T03:43:57;9.12;99.99
67275;DHT22;55463;52.324;5.122;2023-04-24T03:46:23;9.11;99.99
67275;DHT22;55463;52.324;5.122;2023-04-24T03:48:48;9.11;99.99
67275;DHT22;55463;52.324;5.122;2023-04-24T03:51:13;9.11;99.99
67275;DHT22;55463;52.324;5.122;2023-04-24T03:53:39;9.14;99.99
67275;DHT22;55463;52.324;5.122;2023-04-24T03:56:04;9.10;99.99
67275;DHT22;55463;52.324;5.122;2023-04-24T03:58:30;9.11;99.99
67275;DHT22;55463;52.324;5.122;2023-04-24T04:00:55;9.12;99.99
67275;DHT22;55463;52.324;5.122;2023-04-24T04:03:23;9.12;99.99
67275;DHT22;55463;52.324;5.122;2023-04-24T04:05:48;9.12;99.99
67275;DHT22;55463;52.324;5.122;2023-04-24T04:08:14;9.14;99.99
67275;DHT22;55463;52.324;5.122;2023-04-24T04:10:39;9.14;99.99
67275;DHT22;55463;52.324;5.122;2023-04-24T04:13:05;9.17;99.99
67275;DHT22;55463;52.324;5.122;2023-04-24T04:15:31;9.15;99.99
67275;DHT22;55463;52.324;5.122;2023-04-24T04:17:57;9.15;99.99
67275;DHT22;55463;52.324;5.122;2023-04-24T04:20:22;9.14;99.99
67275;DHT22;55463;52.324;5.122;2023-04-24T04:22:47;9.14;99.99
67275;DHT22;55463;52.324;5.122;2023-04-24T04:25:13;9.14;99.99
67275;DHT22;55463;52.324;5.122;2023-04-24T04:27:38;9.15;99.99
67275;DHT22;55463;52.324;5.122;2023-04-24T04:30:07;9.15;99.99
67275;DHT22;55463;52.324;5.122;2023-04-24T04:32:34;9.18;99.99
67275;DHT22;55463;52.324;5.122;2023-04-24T04:35:00;9.15;99.99
67275;DHT22;55463;52.324;5.122;2023-04-24T04:37:32;9.15;99.99
67275;DHT22;55463;52.324;5.122;2023-04-24T04:39:59;9.20;99.99
67275;DHT22;55463;52.324;5.122;2023-04-24T04:42:25;9.17;99.99
67275;DHT22;55463;52.324;5.122;2023-04-24T04:44:51;9.14;99.99
67275;DHT22;55463;52.324;5.122;2023-04-24T04:47:16;9.17;99.99
67275;DHT22;55463;52.324;5.122;2023-04-24T04:49:42;9.14;99.99
67275;DHT22;55463;52.324;5.122;2023-04-24T04:52:08;9.15;99.99
67275;DHT22;55463;52.324;5.122;2023-04-24T04:54:34;9.14;99.99
67275;DHT22;55463;52.324;5.122;2023-04-24T04:56:59;9.11;99.99
67275;DHT22;55463;52.324;5.122;2023-04-24T04:59:25;9.10;99.99
67275;DHT22;55463;52.324;5.122;2023-04-24T05:01:53;9.05;99.99
67275;DHT22;55463;52.324;5.122;2023-04-24T05:04:19;9.07;99.99
67275;DHT22;55463;52.324;5.122;2023-04-24T05:06:44;9.05;99.99
67275;DHT22;55463;52.324;5.122;2023-04-24T05:09:12;9.05;99.99
67275;DHT22;55463;52.324;5.122;2023-04-24T05:11:37;9.05;99.99
67275;DHT22;55463;52.324;5.122;2023-04-24T05:14:02;9.04;99.99
67275;DHT22;55463;52.324;5.122;2023-04-24T05:16:28;9.04;99.99
67275;DHT22;55463;52.324;5.122;2023-04-24T05:18:53;9.00;99.99
67275;DHT22;55463;52.324;5.122;2023-04-24T05:21:19;9.01;99.99
67275;DHT22;55463;52.324;5.122;2023-04-24T05:23:44;9.00;99.99
67275;DHT22;55463;52.324;5.122;2023-04-24T05:26:09;8.93;99.99
67275;DHT22;55463;52.324;5.122;2023-04-24T05:28:35;8.88;99.99
67275;DHT22;55463;52.324;5.122;2023-04-24T05:31:02;8.84;99.99
67275;DHT22;55463;52.324;5.122;2023-04-24T05:33:27;8.87;99.99
67275;DHT22;55463;52.324;5.122;2023-04-24T05:35:53;8.86;99.99
67275;DHT22;55463;52.324;5.122;2023-04-24T05:38:18;8.88;99.99
67275;DHT22;55463;52.324;5.122;2023-04-24T05:40:45;8.90;99.99
67275;DHT22;55463;52.324;5.122;2023-04-24T05:43:10;8.90;99.99
67275;DHT22;55463;52.324;5.122;2023-04-24T05:45:36;8.90;99.99
67275;DHT22;55463;52.324;5.122;2023-04-24T05:48:02;8.96;99.99
67275;DHT22;55463;52.324;5.122;2023-04-24T05:50:28;9.00;99.99
67275;DHT22;55463;52.324;5.122;2023-04-24T05:52:53;9.05;99.99
67275;DHT22;55463;52.324;5.122;2023-04-24T05:55:19;9.05;99.99
67275;DHT22;55463;52.324;5.122;2023-04-24T05:57:44;9.07;99.99
67275;DHT22;55463;52.324;5.122;2023-04-24T06:00:10;9.07;99.99
67275;DHT22;55463;52.324;5.122;2023-04-24T06:02:37;9.10;99.99
67275;DHT22;55463;52.324;5.122;2023-04-24T06:05:03;9.11;99.99
67275;DHT22;55463;52.324;5.122;2023-04-24T06:07:30;9.12;99.99
67275;DHT22;55463;52.324;5.122;2023-04-24T06:09:55;9.07;99.99
67275;DHT22;55463;52.324;5.122;2023-04-24T06:12:21;9.07;99.99
67275;DHT22;55463;52.324;5.122;2023-04-24T06:14:47;9.07;99.99
67275;DHT22;55463;52.324;5.122;2023-04-24T06:17:12;9.07;99.99
67275;DHT22;55463;52.324;5.122;2023-04-24T06:19:38;9.05;99.99
67275;DHT22;55463;52.324;5.122;2023-04-24T06:22:04;9.04;99.99
67275;DHT22;55463;52.324;5.122;2023-04-24T06:24:29;9.04;99.99
67275;DHT22;55463;52.324;5.122;2023-04-24T06:26:55;9.07;99.99
67275;DHT22;55463;52.324;5.122;2023-04-24T06:29:22;9.04;99.99
67275;DHT22;55463;52.324;5.122;2023-04-24T06:31:47;9.04;99.99
67275;DHT22;55463;52.324;5.122;2023-04-24T06:34:12;8.99;99.99
67275;DHT22;55463;52.324;5.122;2023-04-24T06:36:38;8.97;99.99
67275;DHT22;55463;52.324;5.122;2023-04-24T06:39:03;8.96;99.99
67275;DHT22;55463;52.324;5.122;2023-04-24T06:41:29;8.91;99.99
67275;DHT22;55463;52.324;5.122;2023-04-24T06:43:55;8.86;99.99
67275;DHT22;55463;52.324;5.122;2023-04-24T06:46:20;8.88;99.99
67275;DHT22;55463;52.324;5.122;2023-04-24T06:48:49;8.88;99.99
67275;DHT22;55463;52.324;5.122;2023-04-24T06:51:15;8.87;99.99
67275;DHT22;55463;52.324;5.122;2023-04-24T06:53:40;8.84;99.99
67275;DHT22;55463;52.324;5.122;2023-04-24T06:56:05;8.81;99.99
67275;DHT22;55463;52.324;5.122;2023-04-24T06:58:31;8.86;99.99
67275;DHT22;55463;52.324;5.122;2023-04-24T07:00:56;8.86;99.99
67275;DHT22;55463;52.324;5.122;2023-04-24T07:03:21;8.83;99.99
67275;DHT22;55463;52.324;5.122;2023-04-24T07:05:48;8.84;99.99
67275;DHT22;55463;52.324;5.122;2023-04-24T07:08:14;8.86;99.99
67275;DHT22;55463;52.324;5.122;2023-04-24T07:10:42;8.86;99.99
67275;DHT22;55463;52.324;5.122;2023-04-24T07:13:07;8.87;99.99
67275;DHT22;55463;52.324;5.122;2023-04-24T07:15:33;8.90;99.99
67275;DHT22;55463;52.324;5.122;2023-04-24T07:17:59;8.90;99.99
67275;DHT22;55463;52.324;5.122;2023-04-24T07:20:24;8.93;99.99
67275;DHT22;55463;52.324;5.122;2023-04-24T07:22:51;8.88;99.99
67275;DHT22;55463;52.324;5.122;2023-04-24T07:25:17;8.88;99.99
67275;DHT22;55463;52.324;5.122;2023-04-24T07:27:42;8.88;99.99
67275;DHT22;55463;52.324;5.122;2023-04-24T07:30:08;8.90;99.99
67275;DHT22;55463;52.324;5.122;2023-04-24T07:32:34;8.93;99.99
67275;DHT22;55463;52.324;5.122;2023-04-24T07:35:00;8.93;99.99
67275;DHT22;55463;52.324;5.122;2023-04-24T07:37:25;8.93;99.99
67275;DHT22;55463;52.324;5.122;2023-04-24T07:39:51;8.93;99.99
67275;DHT22;55463;52.324;5.122;2023-04-24T07:42:16;8.83;99.99
67275;DHT22;55463;52.324;5.122;2023-04-24T07:44:41;8.79;99.99
67275;DHT22;55463;52.324;5.122;2023-04-24T07:47:07;8.76;99.99
67275;DHT22;55463;52.324;5.122;2023-04-24T07:49:33;8.76;99.99
67275;DHT22;55463;52.324;5.122;2023-04-24T07:52:00;8.77;99.99
67275;DHT22;55463;52.324;5.122;2023-04-24T07:54:27;8.75;99.99
67275;DHT22;55463;52.324;5.122;2023-04-24T07:56:52;8.75;99.99
67275;DHT22;55463;52.324;5.122;2023-04-24T07:59:17;8.76;99.99
67275;DHT22;55463;52.324;5.122;2023-04-24T08:01:43;8.76;99.99
67275;DHT22;55463;52.324;5.122;2023-04-24T08:04:08;8.79;99.99
67275;DHT22;55463;52.324;5.122;2023-04-24T08:06:33;8.77;99.99
67275;DHT22;55463;52.324;5.122;2023-04-24T08:08:59;8.79;99.99
67275;DHT22;55463;52.324;5.122;2023-04-24T08:11:25;8.70;99.83
67275;DHT22;55463;52.324;5.122;2023-04-24T08:13:51;8.67;99.89
67275;DHT22;55463;52.324;5.122;2023-04-24T08:16:16;8.73;99.99
67275;DHT22;55463;52.324;5.122;2023-04-24T08:18:42;8.66;99.37
67275;DHT22;55463;52.324;5.122;2023-04-24T08:21:07;8.66;99.99
67275;DHT22;55463;52.324;5.122;2023-04-24T08:23:33;8.67;99.99
67275;DHT22;55463;52.324;5.122;2023-04-24T08:25:58;8.66;99.65
67275;DHT22;55463;52.324;5.122;2023-04-24T08:28:24;8.67;99.40
67275;DHT22;55463;52.324;5.122;2023-04-24T08:30:49;8.70;99.79
67275;DHT22;55463;52.324;5.122;2023-04-24T08:33:22;8.66;97.89
67275;DHT22;55463;52.324;5.122;2023-04-24T08:35:48;8.63;97.59
67275;DHT22;55463;52.324;5.122;2023-04-24T08:38:13;8.72;98.39
67275;DHT22;55463;52.324;5.122;2023-04-24T08:40:39;8.72;97.37
67275;DHT22;55463;52.324;5.122;2023-04-24T08:43:05;8.75;97.36
67275;DHT22;55463;52.324;5.122;2023-04-24T08:45:30;8.75;96.66
67275;DHT22;55463;52.324;5.122;2023-04-24T08:47:57;8.80;96.47
67275;DHT22;55463;52.324;5.122;2023-04-24T08:50:24;8.84;96.30
67275;DHT22;55463;52.324;5.122;2023-04-24T08:52:50;8.84;94.81
67275;DHT22;55463;52.324;5.122;2023-04-24T08:55:16;8.83;92.95
67275;DHT22;55463;52.324;5.122;2023-04-24T08:57:45;8.91;95.28
67275;DHT22;55463;52.324;5.122;2023-04-24T09:00:11;8.91;93.93
67275;DHT22;55463;52.324;5.122;2023-04-24T09:02:41;8.94;94.97
67275;DHT22;55463;52.324;5.122;2023-04-24T09:05:07;8.90;94.59
67275;DHT22;55463;52.324;5.122;2023-04-24T09:07:35;8.86;95.10
67275;DHT22;55463;52.324;5.122;2023-04-24T09:10:02;8.73;95.36
67275;DHT22;55463;52.324;5.122;2023-04-24T09:12:27;8.66;94.92
67275;DHT22;55463;52.324;5.122;2023-04-24T09:14:54;8.57;94.61
67275;DHT22;55463;52.324;5.122;2023-04-24T09:17:20;8.45;95.32
67275;DHT22;55463;52.324;5.122;2023-04-24T09:19:48;8.41;95.90
67275;DHT22;55463;52.324;5.122;2023-04-24T09:22:13;8.38;95.27
67275;DHT22;55463;52.324;5.122;2023-04-24T09:24:40;8.38;96.08
67275;DHT22;55463;52.324;5.122;2023-04-24T09:27:05;8.42;95.83
67275;DHT22;55463;52.324;5.122;2023-04-24T09:29:31;8.52;96.16
67275;DHT22;55463;52.324;5.122;2023-04-24T09:31:58;8.65;97.72
67275;DHT22;55463;52.324;5.122;2023-04-24T09:34:25;8.75;95.58
67275;DHT22;55463;52.324;5.122;2023-04-24T09:36:51;8.93;97.06
67275;DHT22;55463;52.324;5.122;2023-04-24T09:39:17;9.07;95.98
67275;DHT22;55463;52.324;5.122;2023-04-24T09:41:54;9.21;95.04
67275;DHT22;55463;52.324;5.122;2023-04-24T09:44:27;9.32;93.36
67275;DHT22;55463;52.324;5.122;2023-04-24T09:46:58;9.45;95.23
67275;DHT22;55463;52.324;5.122;2023-04-24T09:49:28;9.70;96.26
67275;DHT22;55463;52.324;5.122;2023-04-24T09:52:04;9.79;93.15
67275;DHT22;55463;52.324;5.122;2023-04-24T09:54:29;9.90;94.63
67275;DHT22;55463;52.324;5.122;2023-04-24T09:56:55;9.90;93.99
67275;DHT22;55463;52.324;5.122;2023-04-24T09:59:22;9.84;92.06
67275;DHT22;55463;52.324;5.122;2023-04-24T10:01:48;9.83;91.45
67275;DHT22;55463;52.324;5.122;2023-04-24T10:04:26;9.82;89.83
67275;DHT22;55463;52.324;5.122;2023-04-24T10:06:56;9.97;91.10
67275;DHT22;55463;52.324;5.122;2023-04-24T10:09:24;10.01;90.59
67275;DHT22;55463;52.324;5.122;2023-04-24T10:11:51;10.00;89.99
67275;DHT22;55463;52.324;5.122;2023-04-24T10:14:19;10.19;90.68
67275;DHT22;55463;52.324;5.122;2023-04-24T10:16:49;10.34;90.15
67275;DHT22;55463;52.324;5.122;2023-04-24T10:19:16;10.25;89.31
67275;DHT22;55463;52.324;5.122;2023-04-24T10:21:44;10.05;88.15
67275;DHT22;55463;52.324;5.122;2023-04-24T10:24:17;9.86;89.22
67275;DHT22;55463;52.324;5.122;2023-04-24T10:26:44;9.82;89.55
67275;DHT22;55463;52.324;5.122;2023-04-24T10:29:14;9.77;89.36
67275;DHT22;55463;52.324;5.122;2023-04-24T10:31:40;9.84;89.16
67275;DHT22;55463;52.324;5.122;2023-04-24T10:34:08;9.87;89.17
67275;DHT22;55463;52.324;5.122;2023-04-24T10:36:34;10.04;90.03
67275;DHT22;55463;52.324;5.122;2023-04-24T10:39:02;10.22;89.45
67275;DHT22;55463;52.324;5.122;2023-04-24T10:41:30;10.56;87.34
67275;DHT22;55463;52.324;5.122;2023-04-24T10:44:09;10.94;90.17
67275;DHT22;55463;52.324;5.122;2023-04-24T10:46:35;10.89;88.37
67275;DHT22;55463;52.324;5.122;2023-04-24T10:49:05;10.84;89.06
67275;DHT22;55463;52.324;5.122;2023-04-24T10:54:24;11.11;88.22
67275;DHT22;55463;52.324;5.122;2023-04-24T10:56:53;12.02;90.64
67275;DHT22;55463;52.324;5.122;2023-04-24T10:59:29;12.15;84.72
67275;DHT22;55463;52.324;5.122;2023-04-24T11:01:59;12.49;82.98
67275;DHT22;55463;52.324;5.122;2023-04-24T11:04:32;13.28;84.63
67275;DHT22;55463;52.324;5.122;2023-04-24T11:06:58;13.43;83.89
67275;DHT22;55463;52.324;5.122;2023-04-24T11:09:27;13.04;81.12
67275;DHT22;55463;52.324;5.122;2023-04-24T11:12:06;13.43;80.71
67275;DHT22;55463;52.324;5.122;2023-04-24T11:17:35;13.35;79.97
67275;DHT22;55463;52.324;5.122;2023-04-24T11:20:17;13.32;82.34
67275;DHT22;55463;52.324;5.122;2023-04-24T11:22:42;12.90;81.11
67275;DHT22;55463;52.324;5.122;2023-04-24T11:25:09;12.49;79.84
67275;DHT22;55463;52.324;5.122;2023-04-24T11:27:42;12.29;80.64
67275;DHT22;55463;52.324;5.122;2023-04-24T11:30:09;11.83;79.38
67275;DHT22;55463;52.324;5.122;2023-04-24T11:32:42;12.26;82.21
67275;DHT22;55463;52.324;5.122;2023-04-24T11:35:21;12.34;81.15
67275;DHT22;55463;52.324;5.122;2023-04-24T11:37:51;12.18;82.43
67275;DHT22;55463;52.324;5.122;2023-04-24T11:40:19;11.77;80.64
67275;DHT22;55463;52.324;5.122;2023-04-24T11:42:49;11.90;82.29
67275;DHT22;55463;52.324;5.122;2023-04-24T11:45:17;12.55;81.26
67275;DHT22;55463;52.324;5.122;2023-04-24T11:47:43;13.15;78.17
67275;DHT22;55463;52.324;5.122;2023-04-24T11:50:17;14.22;78.36
67275;DHT22;55463;52.324;5.122;2023-04-24T11:52:44;14.70;76.69
67275;DHT22;55463;52.324;5.122;2023-04-24T11:57:46;13.71;73.86
67275;DHT22;55463;52.324;5.122;2023-04-24T12:00:20;14.01;77.60
67275;DHT22;55463;52.324;5.122;2023-04-24T12:02:46;13.96;74.82
67275;DHT22;55463;52.324;5.122;2023-04-24T12:05:22;14.26;76.84
67275;DHT22;55463;52.324;5.122;2023-04-24T12:07:48;14.60;76.60
67275;DHT22;55463;52.324;5.122;2023-04-24T12:10:13;14.55;75.10
67275;DHT22;55463;52.324;5.122;2023-04-24T12:12:39;14.05;74.75
67275;DHT22;55463;52.324;5.122;2023-04-24T12:15:08;13.46;74.94
67275;DHT22;55463;52.324;5.122;2023-04-24T12:17:35;12.87;76.63
67275;DHT22;55463;52.324;5.122;2023-04-24T12:20:06;12.49;80.61
67275;DHT22;55463;52.324;5.122;2023-04-24T12:25:16;11.66;83.30
67275;DHT22;55463;52.324;5.122;2023-04-24T12:27:43;11.46;83.87
67275;DHT22;55463;52.324;5.122;2023-04-24T12:30:12;11.29;83.69
67275;DHT22;55463;52.324;5.122;2023-04-24T12:32:48;10.97;81.65
67275;DHT22;55463;52.324;5.122;2023-04-24T12:35:19;11.04;81.29
67275;DHT22;55463;52.324;5.122;2023-04-24T12:37:45;11.15;80.11
67275;DHT22;55463;52.324;5.122;2023-04-24T12:40:11;11.27;80.34
67275;DHT22;55463;52.324;5.122;2023-04-24T12:42:48;11.28;79.50
67275;DHT22;55463;52.324;5.122;2023-04-24T12:45:15;11.35;79.51
67275;DHT22;55463;52.324;5.122;2023-04-24T12:47:42;11.61;81.00
67275;DHT22;55463;52.324;5.122;2023-04-24T12:50:09;11.80;81.25
67275;DHT22;55463;52.324;5.122;2023-04-24T12:52:35;11.93;79.58
67275;DHT22;55463;52.324;5.122;2023-04-24T12:55:01;12.04;79.97
67275;DHT22;55463;52.324;5.122;2023-04-24T12:57:28;11.79;77.96
67275;DHT22;55463;52.324;5.122;2023-04-24T12:59:55;11.58;77.77
67275;DHT22;55463;52.324;5.122;2023-04-24T13:02:25;11.47;79.32
67275;DHT22;55463;52.324;5.122;2023-04-24T13:04:51;11.39;79.81
67275;DHT22;55463;52.324;5.122;2023-04-24T13:07:17;11.32;81.20
67275;DHT22;55463;52.324;5.122;2023-04-24T13:09:43;11.27;80.92
67275;DHT22;55463;52.324;5.122;2023-04-24T13:12:09;11.28;80.99
67275;DHT22;55463;52.324;5.122;2023-04-24T13:14:35;11.43;82.23
67275;DHT22;55463;52.324;5.122;2023-04-24T13:17:01;11.45;79.97
67275;DHT22;55463;52.324;5.122;2023-04-24T13:19:27;11.35;79.38
67275;DHT22;55463;52.324;5.122;2023-04-24T13:21:54;11.19;77.46
67275;DHT22;55463;52.324;5.122;2023-04-24T13:24:20;11.00;77.45
67275;DHT22;55463;52.324;5.122;2023-04-24T13:26:46;10.93;77.89
67275;DHT22;55463;52.324;5.122;2023-04-24T13:29:11;10.96;78.73
67275;DHT22;55463;52.324;5.122;2023-04-24T13:31:36;11.63;78.99
67275;DHT22;55463;52.324;5.122;2023-04-24T13:34:03;11.83;78.09
67275;DHT22;55463;52.324;5.122;2023-04-24T13:36:29;11.65;77.60
67275;DHT22;55463;52.324;5.122;2023-04-24T13:38:55;11.36;78.26
67275;DHT22;55463;52.324;5.122;2023-04-24T13:41:20;11.31;80.64
67275;DHT22;55463;52.324;5.122;2023-04-24T13:43:46;11.06;81.48
67275;DHT22;55463;52.324;5.122;2023-04-24T13:46:11;10.74;81.22
67275;DHT22;55463;52.324;5.122;2023-04-24T13:48:36;10.48;81.07
67275;DHT22;55463;52.324;5.122;2023-04-24T13:51:02;10.63;82.38
67275;DHT22;55463;52.324;5.122;2023-04-24T13:53:27;10.99;83.02
67275;DHT22;55463;52.324;5.122;2023-04-24T13:55:52;11.39;80.57
67275;DHT22;55463;52.324;5.122;2023-04-24T13:58:18;11.83;80.35
67275;DHT22;55463;52.324;5.122;2023-04-24T14:00:43;11.90;79.27
67275;DHT22;55463;52.324;5.122;2023-04-24T14:03:09;11.87;78.63
67275;DHT22;55463;52.324;5.122;2023-04-24T14:05:34;11.87;77.72
67275;DHT22;55463;52.324;5.122;2023-04-24T14:08:00;11.73;76.77
67275;DHT22;55463;52.324;5.122;2023-04-24T14:10:25;11.61;76.58
67275;DHT22;55463;52.324;5.122;2023-04-24T14:12:52;11.55;74.35
67275;DHT22;55463;52.324;5.122;2023-04-24T14:15:18;12.05;73.82
67275;DHT22;55463;52.324;5.122;2023-04-24T14:17:43;12.20;73.14
67275;DHT22;55463;52.324;5.122;2023-04-24T14:20:09;12.53;73.82
67275;DHT22;55463;52.324;5.122;2023-04-24T14:22:35;12.96;73.01
67275;DHT22;55463;52.324;5.122;2023-04-24T14:25:00;13.10;72.53
67275;DHT22;55463;52.324;5.122;2023-04-24T14:27:25;13.07;72.21
67275;DHT22;55463;52.324;5.122;2023-04-24T14:29:52;13.29;73.09
67275;DHT22;55463;52.324;5.122;2023-04-24T14:32:17;13.22;71.11
67275;DHT22;55463;52.324;5.122;2023-04-24T14:34:42;13.05;71.47
67275;DHT22;55463;52.324;5.122;2023-04-24T14:37:08;12.90;72.54
67275;DHT22;55463;52.324;5.122;2023-04-24T14:39:33;12.86;71.73
67275;DHT22;55463;52.324;5.122;2023-04-24T14:41:59;13.35;73.63
67275;DHT22;55463;52.324;5.122;2023-04-24T14:44:25;13.69;72.36
67275;DHT22;55463;52.324;5.122;2023-04-24T14:46:51;13.81;70.67
67275;DHT22;55463;52.324;5.122;2023-04-24T14:49:16;13.76;70.59
67275;DHT22;55463;52.324;5.122;2023-04-24T14:51:41;13.51;72.31
67275;DHT22;55463;52.324;5.122;2023-04-24T14:54:07;13.67;72.91
67275;DHT22;55463;52.324;5.122;2023-04-24T14:56:33;13.39;71.39
67275;DHT22;55463;52.324;5.122;2023-04-24T14:58:59;12.88;70.76
67275;DHT22;55463;52.324;5.122;2023-04-24T15:01:24;12.60;71.48
67275;DHT22;55463;52.324;5.122;2023-04-24T15:03:52;12.66;72.21
67275;DHT22;55463;52.324;5.122;2023-04-24T15:06:17;12.50;70.64
67275;DHT22;55463;52.324;5.122;2023-04-24T15:08:43;12.10;71.49
67275;DHT22;55463;52.324;5.122;2023-04-24T15:11:10;12.04;74.22
67275;DHT22;55463;52.324;5.122;2023-04-24T15:13:35;11.91;72.71
67275;DHT22;55463;52.324;5.122;2023-04-24T15:16:01;11.86;72.25
67275;DHT22;55463;52.324;5.122;2023-04-24T15:18:27;11.81;72.88
67275;DHT22;55463;52.324;5.122;2023-04-24T15:20:55;11.62;72.63
67275;DHT22;55463;52.324;5.122;2023-04-24T15:23:21;11.66;73.23
67275;DHT22;55463;52.324;5.122;2023-04-24T15:25:47;11.55;72.70
67275;DHT22;55463;52.324;5.122;2023-04-24T15:28:12;11.65;72.83
67275;DHT22;55463;52.324;5.122;2023-04-24T15:30:37;11.72;73.25
67275;DHT22;55463;52.324;5.122;2023-04-24T15:33:04;11.81;75.22
67275;DHT22;55463;52.324;5.122;2023-04-24T15:35:30;11.62;74.62
67275;DHT22;55463;52.324;5.122;2023-04-24T15:37:56;11.70;74.57
67275;DHT22;55463;52.324;5.122;2023-04-24T15:40:21;12.02;74.20
67275;DHT22;55463;52.324;5.122;2023-04-24T15:42:47;11.93;73.39
67275;DHT22;55463;52.324;5.122;2023-04-24T15:45:12;11.95;73.11